Terminal Aerodrome Forecast
Issued by NWS

Home | Current Version | Previous Version | Text Only | Print | Product List | Glossary On
Versions: 1 2 3 4 5 6 7 8 9 10 11 12 13 14 15 16 17 18 19 20 21 22 23
000
FTUS46 KLOX 281434 AAB
TAFSBA
TAF AMD
KSBA 281434Z 2815/2912 VRB05KT P6SM BKN006
     FM281630 VRB05KT P6SM SCT009
     FM281700 19007KT P6SM SCT015
     FM282100 24008KT P6SM SCT020
     FM290200 12006KT P6SM SKC
     FM290500 VRB03KT P6SM SKC
     FM291000 VRB03KT 5SM BR BKN006=

USA.gov is the U.S. government's official web portal to all federal, state and local government web resources and services.